sensor_id;sensor_type;location;lat;lon;timestamp;P1;durP1;ratioP1;P2;durP2;ratioP2
76837;SDS011;65797;47.352;8.164;2023-07-31T11:31:05;8.97;;;2.20;;
76837;SDS011;65797;47.352;8.164;2023-07-31T11:33:34;5.70;;;1.63;;
76837;SDS011;65797;47.352;8.164;2023-07-31T11:36:01;3.40;;;2.30;;
76837;SDS011;65797;47.352;8.164;2023-07-31T11:41:03;7.07;;;2.17;;
76837;SDS011;65797;47.352;8.164;2023-07-31T11:43:29;5.40;;;1.87;;
76837;SDS011;65797;47.352;8.164;2023-07-31T11:45:57;2.07;;;1.90;;
76837;SDS011;65797;47.352;8.164;2023-07-31T11:48:25;3.37;;;1.90;;
76837;SDS011;65797;47.352;8.164;2023-07-31T11:50:59;4.07;;;2.10;;
76837;SDS011;65797;47.352;8.164;2023-07-31T11:53:35;5.90;;;2.03;;
76837;SDS011;65797;47.352;8.164;2023-07-31T11:56:02;2.90;;;2.00;;
76837;SDS011;65797;47.352;8.164;2023-07-31T11:58:32;4.83;;;2.30;;
76837;SDS011;65797;47.352;8.164;2023-07-31T12:01:00;2.83;;;1.60;;
76837;SDS011;65797;47.352;8.164;2023-07-31T12:03:26;2.27;;;1.80;;
76837;SDS011;65797;47.352;8.164;2023-07-31T12:05:53;2.10;;;1.73;;
76837;SDS011;65797;47.352;8.164;2023-07-31T12:08:20;2.20;;;1.90;;
76837;SDS011;65797;47.352;8.164;2023-07-31T12:10:49;4.10;;;1.87;;
76837;SDS011;65797;47.352;8.164;2023-07-31T12:13:20;2.20;;;1.87;;
76837;SDS011;65797;47.352;8.164;2023-07-31T12:15:48;2.07;;;1.87;;
76837;SDS011;65797;47.352;8.164;2023-07-31T12:18:15;4.07;;;1.73;;
76837;SDS011;65797;47.352;8.164;2023-07-31T12:20:48;2.57;;;2.37;;
76837;SDS011;65797;47.352;8.164;2023-07-31T12:23:22;2.70;;;1.67;;
76837;SDS011;65797;47.352;8.164;2023-07-31T12:26:15;7.73;;;2.40;;
76837;SDS011;65797;47.352;8.164;2023-07-31T12:28:45;4.50;;;1.60;;
76837;SDS011;65797;47.352;8.164;2023-07-31T12:31:13;2.50;;;1.93;;
76837;SDS011;65797;47.352;8.164;2023-07-31T12:33:44;3.37;;;2.10;;
76837;SDS011;65797;47.352;8.164;2023-07-31T12:36:20;3.20;;;1.63;;
76837;SDS011;65797;47.352;8.164;2023-07-31T12:38:49;4.03;;;2.13;;
76837;SDS011;65797;47.352;8.164;2023-07-31T12:41:15;2.20;;;1.60;;
76837;SDS011;65797;47.352;8.164;2023-07-31T12:43:42;2.70;;;2.10;;
76837;SDS011;65797;47.352;8.164;2023-07-31T12:46:09;4.40;;;1.70;;
76837;SDS011;65797;47.352;8.164;2023-07-31T12:48:35;1.70;;;1.60;;
76837;SDS011;65797;47.352;8.164;2023-07-31T12:51:02;1.87;;;1.67;;
76837;SDS011;65797;47.352;8.164;2023-07-31T12:53:28;5.53;;;2.07;;
76837;SDS011;65797;47.352;8.164;2023-07-31T12:55:54;1.90;;;1.77;;
76837;SDS011;65797;47.352;8.164;2023-07-31T12:58:21;2.80;;;2.03;;
76837;SDS011;65797;47.352;8.164;2023-07-31T13:00:46;5.67;;;2.07;;
76837;SDS011;65797;47.352;8.164;2023-07-31T13:03:12;3.77;;;2.13;;
76837;SDS011;65797;47.352;8.164;2023-07-31T13:05:38;4.13;;;2.13;;
76837;SDS011;65797;47.352;8.164;2023-07-31T13:08:03;2.23;;;1.90;;
76837;SDS011;65797;47.352;8.164;2023-07-31T13:10:29;2.50;;;1.43;;
76837;SDS011;65797;47.352;8.164;2023-07-31T13:12:55;2.23;;;2.03;;
76837;SDS011;65797;47.352;8.164;2023-07-31T13:15:21;4.17;;;2.17;;
76837;SDS011;65797;47.352;8.164;2023-07-31T13:17:46;4.40;;;2.23;;
76837;SDS011;65797;47.352;8.164;2023-07-31T13:20:12;4.10;;;2.60;;
76837;SDS011;65797;47.352;8.164;2023-07-31T13:22:38;2.83;;;2.47;;
76837;SDS011;65797;47.352;8.164;2023-07-31T13:25:04;2.30;;;2.03;;
76837;SDS011;65797;47.352;8.164;2023-07-31T13:27:30;3.47;;;2.43;;
76837;SDS011;65797;47.352;8.164;2023-07-31T13:29:56;2.37;;;1.87;;
76837;SDS011;65797;47.352;8.164;2023-07-31T13:32:22;3.63;;;2.17;;
76837;SDS011;65797;47.352;8.164;2023-07-31T13:34:47;5.07;;;2.30;;
76837;SDS011;65797;47.352;8.164;2023-07-31T13:37:13;8.60;;;3.13;;
76837;SDS011;65797;47.352;8.164;2023-07-31T13:39:40;3.70;;;2.30;;
76837;SDS011;65797;47.352;8.164;2023-07-31T13:42:07;3.80;;;2.10;;
76837;SDS011;65797;47.352;8.164;2023-07-31T13:44:37;3.37;;;2.57;;
76837;SDS011;65797;47.352;8.164;2023-07-31T13:47:04;5.80;;;2.57;;
76837;SDS011;65797;47.352;8.164;2023-07-31T13:49:30;3.53;;;2.33;;
76837;SDS011;65797;47.352;8.164;2023-07-31T13:51:56;4.60;;;1.80;;
76837;SDS011;65797;47.352;8.164;2023-07-31T13:54:22;8.90;;;2.90;;
76837;SDS011;65797;47.352;8.164;2023-07-31T13:56:48;5.30;;;2.50;;
76837;SDS011;65797;47.352;8.164;2023-07-31T13:59:14;2.17;;;1.97;;
76837;SDS011;65797;47.352;8.164;2023-07-31T14:01:41;2.37;;;1.80;;
76837;SDS011;65797;47.352;8.164;2023-07-31T14:04:08;5.37;;;2.50;;
76837;SDS011;65797;47.352;8.164;2023-07-31T14:06:34;3.30;;;2.03;;
76837;SDS011;65797;47.352;8.164;2023-07-31T14:09:00;4.13;;;2.33;;
76837;SDS011;65797;47.352;8.164;2023-07-31T14:11:26;3.10;;;2.47;;
76837;SDS011;65797;47.352;8.164;2023-07-31T14:13:52;3.07;;;2.40;;
76837;SDS011;65797;47.352;8.164;2023-07-31T14:16:17;3.10;;;2.20;;
76837;SDS011;65797;47.352;8.164;2023-07-31T14:18:43;5.23;;;2.47;;
76837;SDS011;65797;47.352;8.164;2023-07-31T14:21:11;3.50;;;2.33;;
76837;SDS011;65797;47.352;8.164;2023-07-31T14:23:37;6.43;;;2.53;;
76837;SDS011;65797;47.352;8.164;2023-07-31T14:26:03;3.50;;;2.43;;
76837;SDS011;65797;47.352;8.164;2023-07-31T14:28:29;4.43;;;2.00;;
76837;SDS011;65797;47.352;8.164;2023-07-31T14:30:55;7.50;;;2.00;;
76837;SDS011;65797;47.352;8.164;2023-07-31T14:33:20;2.70;;;1.87;;
76837;SDS011;65797;47.352;8.164;2023-07-31T14:35:46;3.90;;;2.23;;
76837;SDS011;65797;47.352;8.164;2023-07-31T15:04:14;3.77;;;2.40;;
76837;SDS011;65797;47.352;8.164;2023-07-31T15:06:40;6.70;;;2.00;;
76837;SDS011;65797;47.352;8.164;2023-07-31T15:09:06;5.00;;;3.13;;
76837;SDS011;65797;47.352;8.164;2023-07-31T15:11:32;3.30;;;2.47;;
76837;SDS011;65797;47.352;8.164;2023-07-31T15:13:58;4.33;;;2.43;;
76837;SDS011;65797;47.352;8.164;2023-07-31T15:16:23;3.23;;;2.30;;
76837;SDS011;65797;47.352;8.164;2023-07-31T15:18:49;2.77;;;2.57;;
76837;SDS011;65797;47.352;8.164;2023-07-31T15:21:15;8.33;;;2.40;;
76837;SDS011;65797;47.352;8.164;2023-07-31T15:23:41;3.40;;;2.27;;
76837;SDS011;65797;47.352;8.164;2023-07-31T15:26:06;5.90;;;2.30;;
76837;SDS011;65797;47.352;8.164;2023-07-31T15:28:32;4.30;;;2.30;;
76837;SDS011;65797;47.352;8.164;2023-07-31T15:31:00;3.03;;;2.20;;
76837;SDS011;65797;47.352;8.164;2023-07-31T15:33:25;3.93;;;2.30;;
76837;SDS011;65797;47.352;8.164;2023-07-31T15:35:51;9.53;;;2.40;;
76837;SDS011;65797;47.352;8.164;2023-07-31T15:38:20;4.40;;;2.87;;
76837;SDS011;65797;47.352;8.164;2023-07-31T15:40:46;5.30;;;2.90;;
76837;SDS011;65797;47.352;8.164;2023-07-31T15:43:14;4.80;;;2.87;;
76837;SDS011;65797;47.352;8.164;2023-07-31T15:45:44;10.10;;;5.40;;
76837;SDS011;65797;47.352;8.164;2023-07-31T15:48:09;8.13;;;2.80;;
76837;SDS011;65797;47.352;8.164;2023-07-31T15:50:35;3.40;;;2.50;;
76837;SDS011;65797;47.352;8.164;2023-07-31T15:53:01;5.43;;;3.40;;
76837;SDS011;65797;47.352;8.164;2023-07-31T15:55:27;3.00;;;2.20;;
76837;SDS011;65797;47.352;8.164;2023-07-31T16:00:28;5.40;;;2.30;;
76837;SDS011;65797;47.352;8.164;2023-07-31T16:02:54;3.37;;;2.87;;
76837;SDS011;65797;47.352;8.164;2023-07-31T16:08:00;8.93;;;2.70;;
76837;SDS011;65797;47.352;8.164;2023-07-31T16:10:26;3.30;;;2.50;;
76837;SDS011;65797;47.352;8.164;2023-07-31T16:12:51;2.70;;;2.00;;
76837;SDS011;65797;47.352;8.164;2023-07-31T16:15:17;3.67;;;2.77;;
76837;SDS011;65797;47.352;8.164;2023-07-31T16:17:43;9.53;;;2.67;;
76837;SDS011;65797;47.352;8.164;2023-07-31T16:20:09;4.47;;;2.30;;
76837;SDS011;65797;47.352;8.164;2023-07-31T16:22:35;7.97;;;2.47;;
76837;SDS011;65797;47.352;8.164;2023-07-31T16:25:01;4.50;;;2.47;;
76837;SDS011;65797;47.352;8.164;2023-07-31T16:27:27;3.87;;;2.60;;
76837;SDS011;65797;47.352;8.164;2023-07-31T16:29:52;3.60;;;2.50;;
76837;SDS011;65797;47.352;8.164;2023-07-31T16:32:18;4.13;;;2.50;;
76837;SDS011;65797;47.352;8.164;2023-07-31T16:34:44;3.27;;;2.23;;
76837;SDS011;65797;47.352;8.164;2023-07-31T16:37:10;5.33;;;3.00;;
76837;SDS011;65797;47.352;8.164;2023-07-31T16:39:35;3.77;;;2.97;;
76837;SDS011;65797;47.352;8.164;2023-07-31T16:42:02;4.13;;;2.40;;
76837;SDS011;65797;47.352;8.164;2023-07-31T16:44:28;3.67;;;2.63;;
76837;SDS011;65797;47.352;8.164;2023-07-31T16:46:54;3.83;;;3.07;;
76837;SDS011;65797;47.352;8.164;2023-07-31T16:49:20;5.30;;;3.10;;
76837;SDS011;65797;47.352;8.164;2023-07-31T16:51:46;3.43;;;3.13;;
76837;SDS011;65797;47.352;8.164;2023-07-31T16:54:12;7.83;;;3.50;;
76837;SDS011;65797;47.352;8.164;2023-07-31T16:56:38;4.60;;;2.90;;
76837;SDS011;65797;47.352;8.164;2023-07-31T16:59:04;5.63;;;2.50;;
76837;SDS011;65797;47.352;8.164;2023-07-31T17:01:30;4.10;;;2.70;;
76837;SDS011;65797;47.352;8.164;2023-07-31T17:03:57;3.63;;;2.50;;
76837;SDS011;65797;47.352;8.164;2023-07-31T17:06:25;5.43;;;2.90;;
76837;SDS011;65797;47.352;8.164;2023-07-31T17:08:52;6.73;;;3.17;;
76837;SDS011;65797;47.352;8.164;2023-07-31T17:11:17;9.57;;;5.80;;
76837;SDS011;65797;47.352;8.164;2023-07-31T17:13:43;42.90;;;28.00;;
76837;SDS011;65797;47.352;8.164;2023-07-31T17:16:09;26.90;;;17.73;;
76837;SDS011;65797;47.352;8.164;2023-07-31T17:18:34;12.90;;;10.30;;
76837;SDS011;65797;47.352;8.164;2023-07-31T17:21:00;24.43;;;13.10;;
76837;SDS011;65797;47.352;8.164;2023-07-31T17:23:25;14.87;;;9.97;;
76837;SDS011;65797;47.352;8.164;2023-07-31T17:25:51;12.93;;;11.40;;
76837;SDS011;65797;47.352;8.164;2023-07-31T17:28:17;5.93;;;4.33;;
76837;SDS011;65797;47.352;8.164;2023-07-31T17:30:42;4.73;;;3.10;;
76837;SDS011;65797;47.352;8.164;2023-07-31T17:33:08;6.60;;;3.27;;
76837;SDS011;65797;47.352;8.164;2023-07-31T17:35:34;4.20;;;3.20;;
76837;SDS011;65797;47.352;8.164;2023-07-31T17:37:59;3.17;;;2.87;;
76837;SDS011;65797;47.352;8.164;2023-07-31T17:40:25;4.57;;;2.77;;
76837;SDS011;65797;47.352;8.164;2023-07-31T17:42:52;3.10;;;2.80;;
76837;SDS011;65797;47.352;8.164;2023-07-31T17:45:17;3.93;;;2.83;;
76837;SDS011;65797;47.352;8.164;2023-07-31T17:47:43;6.53;;;2.37;;
76837;SDS011;65797;47.352;8.164;2023-07-31T17:50:09;5.23;;;3.63;;
76837;SDS011;65797;47.352;8.164;2023-07-31T17:52:35;3.50;;;3.20;;
76837;SDS011;65797;47.352;8.164;2023-07-31T17:55:01;5.37;;;3.20;;
76837;SDS011;65797;47.352;8.164;2023-07-31T17:57:27;6.93;;;3.23;;
76837;SDS011;65797;47.352;8.164;2023-07-31T17:59:53;3.60;;;2.67;;
76837;SDS011;65797;47.352;8.164;2023-07-31T18:02:19;3.97;;;2.87;;
76837;SDS011;65797;47.352;8.164;2023-07-31T18:04:45;3.83;;;3.20;;
76837;SDS011;65797;47.352;8.164;2023-07-31T18:07:11;7.20;;;3.83;;
76837;SDS011;65797;47.352;8.164;2023-07-31T18:09:39;6.13;;;3.50;;
76837;SDS011;65797;47.352;8.164;2023-07-31T18:12:09;4.40;;;3.50;;
76837;SDS011;65797;47.352;8.164;2023-07-31T18:14:34;4.50;;;3.47;;
76837;SDS011;65797;47.352;8.164;2023-07-31T18:17:02;3.73;;;2.90;;
76837;SDS011;65797;47.352;8.164;2023-07-31T18:19:29;3.47;;;2.80;;
76837;SDS011;65797;47.352;8.164;2023-07-31T18:21:56;3.97;;;2.70;;
76837;SDS011;65797;47.352;8.164;2023-07-31T18:24:21;2.80;;;2.47;;
76837;SDS011;65797;47.352;8.164;2023-07-31T18:26:48;3.97;;;2.73;;
76837;SDS011;65797;47.352;8.164;2023-07-31T18:29:14;4.93;;;2.77;;
76837;SDS011;65797;47.352;8.164;2023-07-31T18:31:40;6.13;;;3.57;;
76837;SDS011;65797;47.352;8.164;2023-07-31T18:34:05;5.47;;;3.60;;
76837;SDS011;65797;47.352;8.164;2023-07-31T18:36:32;3.77;;;3.10;;
76837;SDS011;65797;47.352;8.164;2023-07-31T18:39:00;4.17;;;3.10;;
76837;SDS011;65797;47.352;8.164;2023-07-31T18:41:26;3.33;;;3.00;;
76837;SDS011;65797;47.352;8.164;2023-07-31T18:43:51;5.47;;;3.10;;
76837;SDS011;65797;47.352;8.164;2023-07-31T18:46:17;7.40;;;3.23;;
76837;SDS011;65797;47.352;8.164;2023-07-31T18:48:43;4.67;;;2.70;;
76837;SDS011;65797;47.352;8.164;2023-07-31T18:51:09;6.20;;;3.17;;
76837;SDS011;65797;47.352;8.164;2023-07-31T18:53:34;6.30;;;3.03;;
76837;SDS011;65797;47.352;8.164;2023-07-31T18:56:00;5.07;;;3.03;;
76837;SDS011;65797;47.352;8.164;2023-07-31T18:58:26;5.60;;;2.70;;
76837;SDS011;65797;47.352;8.164;2023-07-31T19:00:51;3.43;;;2.80;;
76837;SDS011;65797;47.352;8.164;2023-07-31T19:03:17;3.40;;;2.70;;
76837;SDS011;65797;47.352;8.164;2023-07-31T19:05:43;8.07;;;3.50;;
76837;SDS011;65797;47.352;8.164;2023-07-31T19:08:09;3.10;;;2.60;;
76837;SDS011;65797;47.352;8.164;2023-07-31T19:10:34;3.63;;;2.80;;
76837;SDS011;65797;47.352;8.164;2023-07-31T19:13:01;5.03;;;2.93;;
76837;SDS011;65797;47.352;8.164;2023-07-31T19:15:26;6.03;;;3.00;;
76837;SDS011;65797;47.352;8.164;2023-07-31T19:17:52;5.40;;;3.10;;
76837;SDS011;65797;47.352;8.164;2023-07-31T19:20:18;4.07;;;3.07;;
76837;SDS011;65797;47.352;8.164;2023-07-31T19:22:44;3.47;;;3.07;;
76837;SDS011;65797;47.352;8.164;2023-07-31T19:25:09;5.50;;;2.97;;
76837;SDS011;65797;47.352;8.164;2023-07-31T19:27:35;4.47;;;2.90;;
76837;SDS011;65797;47.352;8.164;2023-07-31T19:30:01;8.77;;;3.03;;
76837;SDS011;65797;47.352;8.164;2023-07-31T19:32:27;3.73;;;2.73;;
76837;SDS011;65797;47.352;8.164;2023-07-31T19:34:53;2.90;;;2.60;;
76837;SDS011;65797;47.352;8.164;2023-07-31T19:37:18;5.20;;;3.17;;
76837;SDS011;65797;47.352;8.164;2023-07-31T19:39:44;8.37;;;3.80;;
76837;SDS011;65797;47.352;8.164;2023-07-31T19:42:12;5.37;;;3.10;;
76837;SDS011;65797;47.352;8.164;2023-07-31T19:44:37;4.63;;;2.60;;
76837;SDS011;65797;47.352;8.164;2023-07-31T19:47:03;4.00;;;2.93;;
76837;SDS011;65797;47.352;8.164;2023-07-31T19:49:29;6.87;;;4.00;;
76837;SDS011;65797;47.352;8.164;2023-07-31T19:51:54;7.03;;;4.03;;
76837;SDS011;65797;47.352;8.164;2023-07-31T19:54:20;10.07;;;3.47;;
76837;SDS011;65797;47.352;8.164;2023-07-31T19:56:46;6.27;;;3.67;;
76837;SDS011;65797;47.352;8.164;2023-07-31T20:01:48;9.10;;;4.37;;
76837;SDS011;65797;47.352;8.164;2023-07-31T20:04:14;4.87;;;3.03;;
76837;SDS011;65797;47.352;8.164;2023-07-31T20:06:40;5.93;;;4.23;;
76837;SDS011;65797;47.352;8.164;2023-07-31T20:09:05;4.83;;;3.20;;
76837;SDS011;65797;47.352;8.164;2023-07-31T20:11:31;5.77;;;3.67;;
76837;SDS011;65797;47.352;8.164;2023-07-31T20:13:57;7.23;;;3.20;;
76837;SDS011;65797;47.352;8.164;2023-07-31T20:16:22;4.83;;;3.50;;
76837;SDS011;65797;47.352;8.164;2023-07-31T20:18:48;5.73;;;2.83;;
76837;SDS011;65797;47.352;8.164;2023-07-31T20:21:14;9.73;;;3.83;;
76837;SDS011;65797;47.352;8.164;2023-07-31T20:23:39;6.27;;;4.23;;
76837;SDS011;65797;47.352;8.164;2023-07-31T20:26:07;8.40;;;3.60;;
76837;SDS011;65797;47.352;8.164;2023-07-31T20:28:33;4.50;;;3.70;;
76837;SDS011;65797;47.352;8.164;2023-07-31T20:30:58;6.63;;;4.17;;
76837;SDS011;65797;47.352;8.164;2023-07-31T20:33:24;3.67;;;3.20;;
76837;SDS011;65797;47.352;8.164;2023-07-31T20:35:50;13.40;;;4.50;;
76837;SDS011;65797;47.352;8.164;2023-07-31T20:38:15;6.73;;;3.80;;
76837;SDS011;65797;47.352;8.164;2023-07-31T20:40:41;4.60;;;3.40;;
76837;SDS011;65797;47.352;8.164;2023-07-31T20:43:07;5.73;;;3.90;;
76837;SDS011;65797;47.352;8.164;2023-07-31T20:45:33;7.83;;;5.43;;
76837;SDS011;65797;47.352;8.164;2023-07-31T20:48:03;8.43;;;5.33;;
76837;SDS011;65797;47.352;8.164;2023-07-31T20:50:31;5.23;;;3.87;;
76837;SDS011;65797;47.352;8.164;2023-07-31T20:53:00;5.50;;;3.80;;
76837;SDS011;65797;47.352;8.164;2023-07-31T20:55:26;6.03;;;3.80;;
76837;SDS011;65797;47.352;8.164;2023-07-31T20:57:52;6.90;;;3.70;;
76837;SDS011;65797;47.352;8.164;2023-07-31T21:00:17;5.80;;;4.23;;
76837;SDS011;65797;47.352;8.164;2023-07-31T21:02:43;4.83;;;3.40;;
76837;SDS011;65797;47.352;8.164;2023-07-31T21:05:09;6.87;;;4.20;;
76837;SDS011;65797;47.352;8.164;2023-07-31T21:07:36;5.70;;;4.60;;
76837;SDS011;65797;47.352;8.164;2023-07-31T21:10:03;6.50;;;4.70;;
76837;SDS011;65797;47.352;8.164;2023-07-31T21:12:33;5.47;;;4.50;;
76837;SDS011;65797;47.352;8.164;2023-07-31T21:14:59;7.67;;;4.67;;
76837;SDS011;65797;47.352;8.164;2023-07-31T21:17:24;4.87;;;4.40;;
76837;SDS011;65797;47.352;8.164;2023-07-31T21:19:50;5.20;;;3.97;;
76837;SDS011;65797;47.352;8.164;2023-07-31T21:22:16;6.47;;;4.50;;
76837;SDS011;65797;47.352;8.164;2023-07-31T21:24:41;6.47;;;3.93;;
76837;SDS011;65797;47.352;8.164;2023-07-31T21:27:07;6.93;;;4.60;;
76837;SDS011;65797;47.352;8.164;2023-07-31T21:29:33;7.47;;;5.07;;
76837;SDS011;65797;47.352;8.164;2023-07-31T21:31:58;5.37;;;4.70;;
76837;SDS011;65797;47.352;8.164;2023-07-31T21:34:25;6.30;;;4.70;;
76837;SDS011;65797;47.352;8.164;2023-07-31T21:36:52;6.13;;;5.13;;
76837;SDS011;65797;47.352;8.164;2023-07-31T21:39:18;6.20;;;5.23;;
76837;SDS011;65797;47.352;8.164;2023-07-31T21:41:45;6.30;;;4.83;;
76837;SDS011;65797;47.352;8.164;2023-07-31T21:44:11;6.20;;;5.00;;
76837;SDS011;65797;47.352;8.164;2023-07-31T21:46:36;11.30;;;6.87;;
76837;SDS011;65797;47.352;8.164;2023-07-31T21:49:02;10.37;;;7.13;;
76837;SDS011;65797;47.352;8.164;2023-07-31T21:51:28;8.20;;;6.43;;
76837;SDS011;65797;47.352;8.164;2023-07-31T21:53:53;10.03;;;6.93;;
76837;SDS011;65797;47.352;8.164;2023-07-31T21:56:19;9.73;;;6.07;;
76837;SDS011;65797;47.352;8.164;2023-07-31T21:58:45;9.43;;;5.97;;
76837;SDS011;65797;47.352;8.164;2023-07-31T22:01:11;10.10;;;6.13;;
76837;SDS011;65797;47.352;8.164;2023-07-31T22:03:36;11.87;;;6.60;;
76837;SDS011;65797;47.352;8.164;2023-07-31T22:06:02;9.70;;;6.10;;
76837;SDS011;65797;47.352;8.164;2023-07-31T22:08:28;11.43;;;6.17;;
76837;SDS011;65797;47.352;8.164;2023-07-31T22:10:54;6.73;;;5.20;;
76837;SDS011;65797;47.352;8.164;2023-07-31T22:13:20;10.53;;;5.90;;
76837;SDS011;65797;47.352;8.164;2023-07-31T22:15:45;10.57;;;6.37;;
76837;SDS011;65797;47.352;8.164;2023-07-31T22:18:13;7.90;;;6.10;;
76837;SDS011;65797;47.352;8.164;2023-07-31T22:20:38;9.80;;;6.20;;
76837;SDS011;65797;47.352;8.164;2023-07-31T22:23:04;12.40;;;7.70;;
76837;SDS011;65797;47.352;8.164;2023-07-31T22:25:30;13.23;;;7.70;;
76837;SDS011;65797;47.352;8.164;2023-07-31T22:27:56;13.63;;;9.23;;
76837;SDS011;65797;47.352;8.164;2023-07-31T22:30:21;11.57;;;9.17;;
76837;SDS011;65797;47.352;8.164;2023-07-31T22:32:47;27.37;;;16.17;;
76837;SDS011;65797;47.352;8.164;2023-07-31T22:35:13;26.57;;;16.07;;
76837;SDS011;65797;47.352;8.164;2023-07-31T22:37:39;41.90;;;22.00;;
76837;SDS011;65797;47.352;8.164;2023-07-31T22:40:04;17.97;;;12.93;;
76837;SDS011;65797;47.352;8.164;2023-07-31T22:42:31;24.00;;;13.67;;
76837;SDS011;65797;47.352;8.164;2023-07-31T22:44:58;22.23;;;13.53;;
76837;SDS011;65797;47.352;8.164;2023-07-31T22:47:24;18.30;;;11.40;;
76837;SDS011;65797;47.352;8.164;2023-07-31T22:49:49;18.37;;;10.60;;
76837;SDS011;65797;47.352;8.164;2023-07-31T22:52:15;15.63;;;10.20;;
76837;SDS011;65797;47.352;8.164;2023-07-31T22:54:40;17.03;;;8.33;;
76837;SDS011;65797;47.352;8.164;2023-07-31T22:57:06;14.10;;;8.87;;
76837;SDS011;65797;47.352;8.164;2023-07-31T22:59:32;12.30;;;8.47;;
76837;SDS011;65797;47.352;8.164;2023-07-31T23:01:58;12.30;;;8.33;;
76837;SDS011;65797;47.352;8.164;2023-07-31T23:04:23;13.87;;;9.33;;
76837;SDS011;65797;47.352;8.164;2023-07-31T23:06:49;13.43;;;9.97;;
76837;SDS011;65797;47.352;8.164;2023-07-31T23:09:17;12.53;;;8.33;;
76837;SDS011;65797;47.352;8.164;2023-07-31T23:14:18;12.70;;;8.10;;
76837;SDS011;65797;47.352;8.164;2023-07-31T23:16:44;15.00;;;9.30;;
76837;SDS011;65797;47.352;8.164;2023-07-31T23:21:45;14.90;;;9.10;;
76837;SDS011;65797;47.352;8.164;2023-07-31T23:24:11;12.83;;;8.10;;
76837;SDS011;65797;47.352;8.164;2023-07-31T23:26:36;10.87;;;8.10;;
76837;SDS011;65797;47.352;8.164;2023-07-31T23:29:02;13.00;;;8.33;;
76837;SDS011;65797;47.352;8.164;2023-07-31T23:34:03;13.03;;;8.47;;
76837;SDS011;65797;47.352;8.164;2023-07-31T23:36:29;12.40;;;8.10;;
76837;SDS011;65797;47.352;8.164;2023-07-31T23:38:54;18.83;;;8.57;;
76837;SDS011;65797;47.352;8.164;2023-07-31T23:41:20;12.43;;;8.83;;
76837;SDS011;65797;47.352;8.164;2023-07-31T23:43:46;11.90;;;8.37;;
76837;SDS011;65797;47.352;8.164;2023-07-31T23:46:12;10.00;;;7.87;;
76837;SDS011;65797;47.352;8.164;2023-07-31T23:48:37;11.87;;;8.80;;
76837;SDS011;65797;47.352;8.164;2023-07-31T23:51:03;14.10;;;7.90;;
76837;SDS011;65797;47.352;8.164;2023-07-31T23:53:30;14.53;;;9.10;;
76837;SDS011;65797;47.352;8.164;2023-07-31T23:55:56;9.10;;;7.40;;
76837;SDS011;65797;47.352;8.164;2023-07-31T23:58:23;12.13;;;6.77;;
